sensor_id;sensor_type;location;lat;lon;timestamp;P1;durP1;ratioP1;P2;durP2;ratioP2
21170;SDS011;10743;52.160;20.910;2023-05-10T00:00:45;194.40;;;86.70;;
21170;SDS011;10743;52.160;20.910;2023-05-10T00:03:12;192.80;;;80.10;;
21170;SDS011;10743;52.160;20.910;2023-05-10T00:05:40;195.97;;;72.57;;
21170;SDS011;10743;52.160;20.910;2023-05-10T00:08:07;203.27;;;68.53;;
21170;SDS011;10743;52.160;20.910;2023-05-10T00:14:06;197.70;;;57.17;;
21170;SDS011;10743;52.160;20.910;2023-05-10T00:16:33;203.50;;;65.30;;
21170;SDS011;10743;52.160;20.910;2023-05-10T00:19:00;196.70;;;56.70;;
21170;SDS011;10743;52.160;20.910;2023-05-10T00:21:27;195.70;;;57.67;;
21170;SDS011;10743;52.160;20.910;2023-05-10T00:23:54;194.67;;;56.93;;
21170;SDS011;10743;52.160;20.910;2023-05-10T00:26:21;189.80;;;56.60;;
21170;SDS011;10743;52.160;20.910;2023-05-10T00:28:51;193.60;;;56.37;;
21170;SDS011;10743;52.160;20.910;2023-05-10T00:31:18;196.50;;;57.30;;
21170;SDS011;10743;52.160;20.910;2023-05-10T00:33:45;195.87;;;56.60;;
21170;SDS011;10743;52.160;20.910;2023-05-10T00:36:12;199.40;;;57.17;;
21170;SDS011;10743;52.160;20.910;2023-05-10T00:38:40;189.63;;;55.67;;
21170;SDS011;10743;52.160;20.910;2023-05-10T00:41:07;196.20;;;56.80;;
21170;SDS011;10743;52.160;20.910;2023-05-10T00:43:36;193.67;;;56.07;;
21170;SDS011;10743;52.160;20.910;2023-05-10T00:46:03;193.57;;;56.33;;
21170;SDS011;10743;52.160;20.910;2023-05-10T00:48:31;194.50;;;56.33;;
21170;SDS011;10743;52.160;20.910;2023-05-10T00:50:58;193.07;;;55.90;;
21170;SDS011;10743;52.160;20.910;2023-05-10T00:53:25;197.47;;;56.47;;
21170;SDS011;10743;52.160;20.910;2023-05-10T00:55:53;194.47;;;56.30;;
21170;SDS011;10743;52.160;20.910;2023-05-10T00:58:20;188.60;;;55.80;;
21170;SDS011;10743;52.160;20.910;2023-05-10T01:00:47;198.47;;;56.33;;
21170;SDS011;10743;52.160;20.910;2023-05-10T01:03:15;193.50;;;55.70;;
21170;SDS011;10743;52.160;20.910;2023-05-10T01:05:43;192.60;;;55.67;;
21170;SDS011;10743;52.160;20.910;2023-05-10T01:08:10;194.70;;;56.10;;
21170;SDS011;10743;52.160;20.910;2023-05-10T01:10:37;193.53;;;56.47;;
21170;SDS011;10743;52.160;20.910;2023-05-10T01:13:04;189.03;;;55.37;;
21170;SDS011;10743;52.160;20.910;2023-05-10T01:15:32;194.23;;;55.90;;
21170;SDS011;10743;52.160;20.910;2023-05-10T01:17:59;191.80;;;55.33;;
21170;SDS011;10743;52.160;20.910;2023-05-10T01:20:29;191.53;;;55.53;;
21170;SDS011;10743;52.160;20.910;2023-05-10T01:23:20;192.30;;;56.20;;
21170;SDS011;10743;52.160;20.910;2023-05-10T01:35:12;191.37;;;55.80;;
21170;SDS011;10743;52.160;20.910;2023-05-10T01:46:36;191.23;;;56.17;;
21170;SDS011;10743;52.160;20.910;2023-05-10T01:49:09;194.57;;;56.23;;
21170;SDS011;10743;52.160;20.910;2023-05-10T01:51:50;193.90;;;56.20;;
21170;SDS011;10743;52.160;20.910;2023-05-10T01:54:24;193.73;;;56.23;;
21170;SDS011;10743;52.160;20.910;2023-05-10T01:56:59;197.20;;;56.20;;
21170;SDS011;10743;52.160;20.910;2023-05-10T01:59:30;193.13;;;55.93;;
21170;SDS011;10743;52.160;20.910;2023-05-10T02:02:07;192.23;;;56.17;;
21170;SDS011;10743;52.160;20.910;2023-05-10T02:04:38;192.93;;;55.67;;
21170;SDS011;10743;52.160;20.910;2023-05-10T02:07:07;186.70;;;55.50;;
21170;SDS011;10743;52.160;20.910;2023-05-10T02:09:36;188.23;;;55.60;;
21170;SDS011;10743;52.160;20.910;2023-05-10T02:12:04;191.77;;;55.97;;
21170;SDS011;10743;52.160;20.910;2023-05-10T02:14:34;188.67;;;55.70;;
21170;SDS011;10743;52.160;20.910;2023-05-10T02:17:04;192.40;;;55.93;;
21170;SDS011;10743;52.160;20.910;2023-05-10T02:19:32;186.97;;;55.27;;
21170;SDS011;10743;52.160;20.910;2023-05-10T02:22:03;193.07;;;56.00;;
21170;SDS011;10743;52.160;20.910;2023-05-10T02:24:31;189.80;;;55.20;;
21170;SDS011;10743;52.160;20.910;2023-05-10T02:27:00;191.07;;;55.67;;
21170;SDS011;10743;52.160;20.910;2023-05-10T02:29:29;189.80;;;55.43;;
21170;SDS011;10743;52.160;20.910;2023-05-10T02:31:59;188.50;;;55.37;;
21170;SDS011;10743;52.160;20.910;2023-05-10T02:34:27;192.77;;;55.20;;
21170;SDS011;10743;52.160;20.910;2023-05-10T02:36:54;190.90;;;55.00;;
21170;SDS011;10743;52.160;20.910;2023-05-10T02:39:22;186.87;;;55.47;;
21170;SDS011;10743;52.160;20.910;2023-05-10T02:41:51;196.03;;;56.07;;
21170;SDS011;10743;52.160;20.910;2023-05-10T02:44:19;185.73;;;54.83;;
21170;SDS011;10743;52.160;20.910;2023-05-10T02:46:48;189.73;;;55.13;;
21170;SDS011;10743;52.160;20.910;2023-05-10T02:49:16;190.17;;;55.67;;
21170;SDS011;10743;52.160;20.910;2023-05-10T02:51:54;192.53;;;55.80;;
21170;SDS011;10743;52.160;20.910;2023-05-10T02:54:27;189.90;;;54.80;;
21170;SDS011;10743;52.160;20.910;2023-05-10T02:56:58;193.53;;;55.60;;
21170;SDS011;10743;52.160;20.910;2023-05-10T02:59:27;190.17;;;55.77;;
21170;SDS011;10743;52.160;20.910;2023-05-10T03:01:54;189.47;;;55.60;;
21170;SDS011;10743;52.160;20.910;2023-05-10T03:04:21;187.27;;;55.80;;
21170;SDS011;10743;52.160;20.910;2023-05-10T03:06:50;188.67;;;55.63;;
21170;SDS011;10743;52.160;20.910;2023-05-10T03:09:18;188.33;;;55.10;;
21170;SDS011;10743;52.160;20.910;2023-05-10T03:11:56;192.07;;;56.07;;
21170;SDS011;10743;52.160;20.910;2023-05-10T03:17:29;190.93;;;55.27;;
21170;SDS011;10743;52.160;20.910;2023-05-10T03:20:06;186.43;;;55.07;;
21170;SDS011;10743;52.160;20.910;2023-05-10T03:22:39;185.10;;;54.63;;
21170;SDS011;10743;52.160;20.910;2023-05-10T03:25:12;186.17;;;54.67;;
21170;SDS011;10743;52.160;20.910;2023-05-10T03:27:43;189.03;;;55.40;;
21170;SDS011;10743;52.160;20.910;2023-05-10T03:30:12;185.83;;;55.23;;
21170;SDS011;10743;52.160;20.910;2023-05-10T03:32:40;190.63;;;55.30;;
21170;SDS011;10743;52.160;20.910;2023-05-10T03:35:08;188.47;;;55.53;;
21170;SDS011;10743;52.160;20.910;2023-05-10T03:37:36;187.67;;;54.93;;
21170;SDS011;10743;52.160;20.910;2023-05-10T03:40:04;195.27;;;55.80;;
21170;SDS011;10743;52.160;20.910;2023-05-10T03:42:34;189.63;;;55.13;;
21170;SDS011;10743;52.160;20.910;2023-05-10T03:45:01;189.27;;;54.83;;
21170;SDS011;10743;52.160;20.910;2023-05-10T03:47:29;194.00;;;54.90;;
21170;SDS011;10743;52.160;20.910;2023-05-10T03:49:57;188.00;;;54.93;;
21170;SDS011;10743;52.160;20.910;2023-05-10T03:52:24;189.93;;;55.17;;
21170;SDS011;10743;52.160;20.910;2023-05-10T03:54:51;185.50;;;54.60;;
21170;SDS011;10743;52.160;20.910;2023-05-10T03:57:18;189.03;;;55.17;;
21170;SDS011;10743;52.160;20.910;2023-05-10T03:59:45;188.83;;;55.47;;
21170;SDS011;10743;52.160;20.910;2023-05-10T04:02:12;188.23;;;55.00;;
21170;SDS011;10743;52.160;20.910;2023-05-10T04:04:39;188.47;;;55.03;;
21170;SDS011;10743;52.160;20.910;2023-05-10T04:07:06;190.67;;;54.90;;
21170;SDS011;10743;52.160;20.910;2023-05-10T04:09:34;187.80;;;55.60;;
21170;SDS011;10743;52.160;20.910;2023-05-10T04:12:01;190.87;;;55.77;;
21170;SDS011;10743;52.160;20.910;2023-05-10T04:14:28;188.07;;;54.87;;
21170;SDS011;10743;52.160;20.910;2023-05-10T04:16:55;190.83;;;55.63;;
21170;SDS011;10743;52.160;20.910;2023-05-10T04:19:22;190.40;;;55.30;;
21170;SDS011;10743;52.160;20.910;2023-05-10T04:21:49;190.73;;;55.23;;
21170;SDS011;10743;52.160;20.910;2023-05-10T04:24:16;191.20;;;55.80;;
21170;SDS011;10743;52.160;20.910;2023-05-10T04:26:43;190.87;;;55.43;;
21170;SDS011;10743;52.160;20.910;2023-05-10T04:29:10;191.80;;;56.00;;
21170;SDS011;10743;52.160;20.910;2023-05-10T04:31:37;189.27;;;55.27;;
21170;SDS011;10743;52.160;20.910;2023-05-10T04:34:04;189.63;;;55.90;;
21170;SDS011;10743;52.160;20.910;2023-05-10T04:36:31;192.30;;;55.73;;
21170;SDS011;10743;52.160;20.910;2023-05-10T04:39:01;189.53;;;55.37;;
21170;SDS011;10743;52.160;20.910;2023-05-10T04:41:29;193.43;;;55.60;;
21170;SDS011;10743;52.160;20.910;2023-05-10T04:43:56;194.50;;;55.73;;
21170;SDS011;10743;52.160;20.910;2023-05-10T04:46:23;185.73;;;55.13;;
21170;SDS011;10743;52.160;20.910;2023-05-10T04:48:51;191.27;;;55.63;;
21170;SDS011;10743;52.160;20.910;2023-05-10T04:51:18;190.10;;;55.00;;
21170;SDS011;10743;52.160;20.910;2023-05-10T04:53:45;198.53;;;58.27;;
21170;SDS011;10743;52.160;20.910;2023-05-10T04:56:30;190.97;;;56.20;;
21170;SDS011;10743;52.160;20.910;2023-05-10T04:58:57;196.00;;;56.30;;
21170;SDS011;10743;52.160;20.910;2023-05-10T05:01:24;253.10;;;191.50;;
21170;SDS011;10743;52.160;20.910;2023-05-10T05:03:51;262.63;;;211.03;;
21170;SDS011;10743;52.160;20.910;2023-05-10T05:06:19;247.47;;;166.77;;
21170;SDS011;10743;52.160;20.910;2023-05-10T05:08:47;242.27;;;153.40;;
21170;SDS011;10743;52.160;20.910;2023-05-10T05:11:16;237.07;;;148.07;;
21170;SDS011;10743;52.160;20.910;2023-05-10T05:13:43;228.57;;;123.27;;
21170;SDS011;10743;52.160;20.910;2023-05-10T05:16:10;192.80;;;55.33;;
21170;SDS011;10743;52.160;20.910;2023-05-10T05:18:38;194.13;;;55.87;;
21170;SDS011;10743;52.160;20.910;2023-05-10T05:21:14;198.57;;;56.47;;
21170;SDS011;10743;52.160;20.910;2023-05-10T05:23:42;204.77;;;57.67;;
21170;SDS011;10743;52.160;20.910;2023-05-10T05:26:10;196.53;;;56.40;;
21170;SDS011;10743;52.160;20.910;2023-05-10T05:28:37;193.97;;;55.87;;
21170;SDS011;10743;52.160;20.910;2023-05-10T05:31:05;206.30;;;65.00;;
21170;SDS011;10743;52.160;20.910;2023-05-10T05:33:35;203.37;;;57.33;;
21170;SDS011;10743;52.160;20.910;2023-05-10T05:36:03;198.40;;;56.50;;
21170;SDS011;10743;52.160;20.910;2023-05-10T05:38:31;201.30;;;56.73;;
21170;SDS011;10743;52.160;20.910;2023-05-10T05:40:58;205.70;;;56.80;;
21170;SDS011;10743;52.160;20.910;2023-05-10T05:43:25;199.40;;;57.63;;
21170;SDS011;10743;52.160;20.910;2023-05-10T05:45:52;235.63;;;154.17;;
21170;SDS011;10743;52.160;20.910;2023-05-10T05:48:20;201.30;;;70.87;;
21170;SDS011;10743;52.160;20.910;2023-05-10T05:50:47;268.27;;;232.33;;
21170;SDS011;10743;52.160;20.910;2023-05-10T05:53:14;211.83;;;58.20;;
21170;SDS011;10743;52.160;20.910;2023-05-10T05:55:51;203.77;;;56.97;;
21170;SDS011;10743;52.160;20.910;2023-05-10T05:58:24;208.13;;;57.77;;
21170;SDS011;10743;52.160;20.910;2023-05-10T06:00:52;208.40;;;57.63;;
21170;SDS011;10743;52.160;20.910;2023-05-10T06:03:20;210.13;;;57.70;;
21170;SDS011;10743;52.160;20.910;2023-05-10T06:05:47;210.10;;;58.15;;
21170;SDS011;10743;52.160;20.910;2023-05-10T06:08:14;214.85;;;58.00;;
21170;SDS011;10743;52.160;20.910;2023-05-10T06:10:41;215.27;;;58.37;;
21170;SDS011;10743;52.160;20.910;2023-05-10T06:13:08;211.97;;;58.07;;
21170;SDS011;10743;52.160;20.910;2023-05-10T06:15:36;210.55;;;58.30;;
21170;SDS011;10743;52.160;20.910;2023-05-10T06:18:03;214.90;;;58.35;;
21170;SDS011;10743;52.160;20.910;2023-05-10T06:20:30;214.23;;;57.95;;
21170;SDS011;10743;52.160;20.910;2023-05-10T06:22:58;215.38;;;58.55;;
21170;SDS011;10743;52.160;20.910;2023-05-10T06:25:25;211.63;;;57.80;;
21170;SDS011;10743;52.160;20.910;2023-05-10T06:27:52;227.30;;;60.30;;
21170;SDS011;10743;52.160;20.910;2023-05-10T06:30:24;214.93;;;58.40;;
21170;SDS011;10743;52.160;20.910;2023-05-10T06:32:54;212.20;;;58.40;;
21170;SDS011;10743;52.160;20.910;2023-05-10T06:35:21;208.90;;;58.33;;
21170;SDS011;10743;52.160;20.910;2023-05-10T06:37:49;218.07;;;59.20;;
21170;SDS011;10743;52.160;20.910;2023-05-10T06:40:17;220.05;;;59.60;;
21170;SDS011;10743;52.160;20.910;2023-05-10T06:42:45;218.82;;;59.35;;
21170;SDS011;10743;52.160;20.910;2023-05-10T06:45:13;213.13;;;58.15;;
21170;SDS011;10743;52.160;20.910;2023-05-10T06:47:42;221.18;;;58.95;;
21170;SDS011;10743;52.160;20.910;2023-05-10T06:50:10;214.68;;;58.80;;
21170;SDS011;10743;52.160;20.910;2023-05-10T06:52:37;205.32;;;57.28;;
21170;SDS011;10743;52.160;20.910;2023-05-10T06:55:05;206.00;;;57.28;;
21170;SDS011;10743;52.160;20.910;2023-05-10T06:57:33;210.00;;;58.38;;
21170;SDS011;10743;52.160;20.910;2023-05-10T07:00:00;206.50;;;57.35;;
21170;SDS011;10743;52.160;20.910;2023-05-10T07:02:30;208.88;;;57.47;;
21170;SDS011;10743;52.160;20.910;2023-05-10T07:04:57;203.50;;;57.63;;
21170;SDS011;10743;52.160;20.910;2023-05-10T07:07:28;200.75;;;57.55;;
21170;SDS011;10743;52.160;20.910;2023-05-10T07:09:55;201.15;;;57.33;;
21170;SDS011;10743;52.160;20.910;2023-05-10T07:12:24;203.00;;;57.50;;
21170;SDS011;10743;52.160;20.910;2023-05-10T07:14:51;215.77;;;64.35;;
21170;SDS011;10743;52.160;20.910;2023-05-10T07:17:19;213.38;;;58.40;;
21170;SDS011;10743;52.160;20.910;2023-05-10T07:19:46;216.90;;;58.70;;
21170;SDS011;10743;52.160;20.910;2023-05-10T07:22:13;208.90;;;57.90;;
21170;SDS011;10743;52.160;20.910;2023-05-10T07:24:41;209.57;;;58.10;;
21170;SDS011;10743;52.160;20.910;2023-05-10T07:27:08;217.45;;;59.10;;
21170;SDS011;10743;52.160;20.910;2023-05-10T07:29:35;225.63;;;60.10;;
21170;SDS011;10743;52.160;20.910;2023-05-10T07:32:02;224.15;;;59.28;;
21170;SDS011;10743;52.160;20.910;2023-05-10T07:34:29;218.32;;;59.15;;
21170;SDS011;10743;52.160;20.910;2023-05-10T07:36:58;219.23;;;59.00;;
21170;SDS011;10743;52.160;20.910;2023-05-10T07:39:26;223.77;;;59.72;;
21170;SDS011;10743;52.160;20.910;2023-05-10T07:41:54;225.13;;;58.97;;
21170;SDS011;10743;52.160;20.910;2023-05-10T07:44:22;228.32;;;59.33;;
21170;SDS011;10743;52.160;20.910;2023-05-10T07:46:49;346.85;;;77.47;;
21170;SDS011;10743;52.160;20.910;2023-05-10T07:49:16;219.02;;;58.78;;
21170;SDS011;10743;52.160;20.910;2023-05-10T07:51:43;219.10;;;59.42;;
21170;SDS011;10743;52.160;20.910;2023-05-10T07:54:10;222.38;;;59.28;;
21170;SDS011;10743;52.160;20.910;2023-05-10T07:56:37;219.18;;;59.30;;
21170;SDS011;10743;52.160;20.910;2023-05-10T07:59:06;215.70;;;58.72;;
21170;SDS011;10743;52.160;20.910;2023-05-10T08:01:34;222.68;;;60.10;;
21170;SDS011;10743;52.160;20.910;2023-05-10T08:04:02;223.82;;;59.83;;
21170;SDS011;10743;52.160;20.910;2023-05-10T08:06:29;217.10;;;59.47;;
21170;SDS011;10743;52.160;20.910;2023-05-10T08:08:56;228.23;;;60.45;;
21170;SDS011;10743;52.160;20.910;2023-05-10T08:11:23;239.88;;;60.67;;
21170;SDS011;10743;52.160;20.910;2023-05-10T08:13:51;220.65;;;59.78;;
21170;SDS011;10743;52.160;20.910;2023-05-10T08:16:19;221.52;;;59.70;;
21170;SDS011;10743;52.160;20.910;2023-05-10T08:18:46;221.77;;;59.53;;
21170;SDS011;10743;52.160;20.910;2023-05-10T08:21:15;221.65;;;59.53;;
21170;SDS011;10743;52.160;20.910;2023-05-10T08:23:42;223.70;;;59.95;;
21170;SDS011;10743;52.160;20.910;2023-05-10T08:26:10;220.60;;;59.83;;
21170;SDS011;10743;52.160;20.910;2023-05-10T08:28:37;220.00;;;59.70;;
21170;SDS011;10743;52.160;20.910;2023-05-10T08:31:04;218.93;;;59.42;;
21170;SDS011;10743;52.160;20.910;2023-05-10T08:33:32;224.82;;;60.40;;
21170;SDS011;10743;52.160;20.910;2023-05-10T08:35:59;222.43;;;60.38;;
21170;SDS011;10743;52.160;20.910;2023-05-10T08:38:26;231.27;;;61.05;;
21170;SDS011;10743;52.160;20.910;2023-05-10T08:40:54;228.82;;;61.25;;
21170;SDS011;10743;52.160;20.910;2023-05-10T08:43:28;233.73;;;60.92;;
21170;SDS011;10743;52.160;20.910;2023-05-10T08:45:56;216.05;;;60.25;;
21170;SDS011;10743;52.160;20.910;2023-05-10T08:48:29;223.98;;;61.92;;
21170;SDS011;10743;52.160;20.910;2023-05-10T08:50:58;207.25;;;60.80;;
21170;SDS011;10743;52.160;20.910;2023-05-10T08:53:27;216.80;;;60.92;;
21170;SDS011;10743;52.160;20.910;2023-05-10T08:55:57;213.68;;;60.50;;
21170;SDS011;10743;52.160;20.910;2023-05-10T08:58:25;202.05;;;60.95;;
21170;SDS011;10743;52.160;20.910;2023-05-10T09:00:56;204.45;;;60.95;;
21170;SDS011;10743;52.160;20.910;2023-05-10T09:03:24;209.02;;;63.33;;
21170;SDS011;10743;52.160;20.910;2023-05-10T09:05:51;195.20;;;60.88;;
21170;SDS011;10743;52.160;20.910;2023-05-10T09:08:18;191.45;;;60.53;;
21170;SDS011;10743;52.160;20.910;2023-05-10T09:10:48;200.20;;;61.35;;
21170;SDS011;10743;52.160;20.910;2023-05-10T09:13:15;205.82;;;62.03;;
21170;SDS011;10743;52.160;20.910;2023-05-10T09:15:43;181.85;;;59.83;;
21170;SDS011;10743;52.160;20.910;2023-05-10T09:18:11;176.90;;;59.10;;
21170;SDS011;10743;52.160;20.910;2023-05-10T09:20:39;173.88;;;59.58;;
21170;SDS011;10743;52.160;20.910;2023-05-10T09:23:06;162.38;;;58.08;;
21170;SDS011;10743;52.160;20.910;2023-05-10T09:29:38;226.60;;;130.05;;
21170;SDS011;10743;52.160;20.910;2023-05-10T09:32:09;169.77;;;59.03;;
21170;SDS011;10743;52.160;20.910;2023-05-10T09:34:36;185.02;;;61.25;;
21170;SDS011;10743;52.160;20.910;2023-05-10T09:37:06;199.77;;;61.75;;
21170;SDS011;10743;52.160;20.910;2023-05-10T09:39:34;199.80;;;61.58;;
21170;SDS011;10743;52.160;20.910;2023-05-10T09:42:04;204.30;;;62.05;;
21170;SDS011;10743;52.160;20.910;2023-05-10T09:44:33;197.07;;;61.92;;
21170;SDS011;10743;52.160;20.910;2023-05-10T09:47:01;332.15;;;79.90;;
21170;SDS011;10743;52.160;20.910;2023-05-10T09:49:28;184.02;;;60.25;;
21170;SDS011;10743;52.160;20.910;2023-05-10T09:52:06;198.52;;;61.38;;
21170;SDS011;10743;52.160;20.910;2023-05-10T09:54:34;202.80;;;61.78;;
21170;SDS011;10743;52.160;20.910;2023-05-10T09:57:02;208.32;;;61.83;;
21170;SDS011;10743;52.160;20.910;2023-05-10T09:59:29;194.75;;;61.22;;
21170;SDS011;10743;52.160;20.910;2023-05-10T10:02:01;195.63;;;61.40;;
21170;SDS011;10743;52.160;20.910;2023-05-10T10:04:29;202.93;;;61.85;;
21170;SDS011;10743;52.160;20.910;2023-05-10T10:07:00;196.55;;;61.55;;
21170;SDS011;10743;52.160;20.910;2023-05-10T10:09:29;178.05;;;59.75;;
21170;SDS011;10743;52.160;20.910;2023-05-10T10:11:57;171.73;;;59.50;;
21170;SDS011;10743;52.160;20.910;2023-05-10T10:14:28;200.77;;;63.05;;
21170;SDS011;10743;52.160;20.910;2023-05-10T10:16:56;183.15;;;60.35;;
21170;SDS011;10743;52.160;20.910;2023-05-10T10:19:33;168.20;;;59.10;;
21170;SDS011;10743;52.160;20.910;2023-05-10T10:22:04;171.10;;;59.45;;
21170;SDS011;10743;52.160;20.910;2023-05-10T10:24:32;173.02;;;59.50;;
21170;SDS011;10743;52.160;20.910;2023-05-10T10:27:13;162.50;;;58.05;;
21170;SDS011;10743;52.160;20.910;2023-05-10T10:29:52;177.00;;;60.20;;
21170;SDS011;10743;52.160;20.910;2023-05-10T10:35:53;162.32;;;57.88;;
21170;SDS011;10743;52.160;20.910;2023-05-10T10:38:22;157.80;;;58.03;;
21170;SDS011;10743;52.160;20.910;2023-05-10T10:40:49;164.30;;;59.47;;
21170;SDS011;10743;52.160;20.910;2023-05-10T10:43:29;157.95;;;57.83;;
21170;SDS011;10743;52.160;20.910;2023-05-10T10:46:15;158.75;;;58.15;;
21170;SDS011;10743;52.160;20.910;2023-05-10T10:48:48;154.15;;;57.88;;
21170;SDS011;10743;52.160;20.910;2023-05-10T10:51:38;127.53;;;53.17;;
21170;SDS011;10743;52.160;20.910;2023-05-10T10:54:11;129.57;;;53.67;;
21170;SDS011;10743;52.160;20.910;2023-05-10T10:56:39;140.52;;;54.92;;
21170;SDS011;10743;52.160;20.910;2023-05-10T10:59:06;135.60;;;55.20;;
21170;SDS011;10743;52.160;20.910;2023-05-10T11:01:34;151.18;;;57.10;;
21170;SDS011;10743;52.160;20.910;2023-05-10T11:06:32;164.20;;;59.90;;
21170;SDS011;10743;52.160;20.910;2023-05-10T11:09:12;155.98;;;58.05;;
21170;SDS011;10743;52.160;20.910;2023-05-10T11:11:50;159.02;;;58.50;;
21170;SDS011;10743;52.160;20.910;2023-05-10T11:14:21;187.07;;;62.00;;
21170;SDS011;10743;52.160;20.910;2023-05-10T11:16:49;172.60;;;60.92;;
21170;SDS011;10743;52.160;20.910;2023-05-10T11:19:16;164.65;;;59.85;;
21170;SDS011;10743;52.160;20.910;2023-05-10T11:21:45;197.95;;;63.45;;
21170;SDS011;10743;52.160;20.910;2023-05-10T11:24:13;154.50;;;57.95;;
21170;SDS011;10743;52.160;20.910;2023-05-10T11:26:49;171.95;;;61.38;;
21170;SDS011;10743;52.160;20.910;2023-05-10T11:29:17;174.52;;;62.17;;
21170;SDS011;10743;52.160;20.910;2023-05-10T11:31:44;139.35;;;55.53;;
21170;SDS011;10743;52.160;20.910;2023-05-10T11:34:23;138.35;;;55.35;;
21170;SDS011;10743;52.160;20.910;2023-05-10T11:36:55;166.98;;;59.10;;
21170;SDS011;10743;52.160;20.910;2023-05-10T11:39:26;142.80;;;56.28;;
21170;SDS011;10743;52.160;20.910;2023-05-10T11:41:54;138.70;;;56.00;;
21170;SDS011;10743;52.160;20.910;2023-05-10T11:44:22;131.85;;;54.95;;
21170;SDS011;10743;52.160;20.910;2023-05-10T11:46:50;275.23;;;73.70;;
21170;SDS011;10743;52.160;20.910;2023-05-10T11:49:17;101.55;;;48.08;;
21170;SDS011;10743;52.160;20.910;2023-05-10T11:51:44;141.75;;;55.65;;
21170;SDS011;10743;52.160;20.910;2023-05-10T11:54:12;144.10;;;56.85;;
21170;SDS011;10743;52.160;20.910;2023-05-10T11:56:39;139.35;;;56.45;;
21170;SDS011;10743;52.160;20.910;2023-05-10T11:59:07;151.88;;;58.72;;
21170;SDS011;10743;52.160;20.910;2023-05-10T12:01:34;135.75;;;55.38;;
21170;SDS011;10743;52.160;20.910;2023-05-10T12:04:02;128.93;;;54.35;;
21170;SDS011;10743;52.160;20.910;2023-05-10T12:06:30;133.00;;;54.58;;
21170;SDS011;10743;52.160;20.910;2023-05-10T12:08:58;141.15;;;55.80;;
21170;SDS011;10743;52.160;20.910;2023-05-10T12:11:31;142.32;;;55.90;;
21170;SDS011;10743;52.160;20.910;2023-05-10T12:14:04;135.55;;;55.75;;
21170;SDS011;10743;52.160;20.910;2023-05-10T12:16:31;152.07;;;57.83;;
21170;SDS011;10743;52.160;20.910;2023-05-10T12:18:59;155.85;;;58.90;;
21170;SDS011;10743;52.160;20.910;2023-05-10T12:21:27;148.52;;;57.25;;
21170;SDS011;10743;52.160;20.910;2023-05-10T12:24:02;135.63;;;55.38;;
21170;SDS011;10743;52.160;20.910;2023-05-10T12:26:30;132.68;;;54.63;;
21170;SDS011;10743;52.160;20.910;2023-05-10T12:29:18;116.97;;;52.47;;
21170;SDS011;10743;52.160;20.910;2023-05-10T12:31:49;135.55;;;54.10;;
21170;SDS011;10743;52.160;20.910;2023-05-10T12:34:24;120.05;;;52.10;;
21170;SDS011;10743;52.160;20.910;2023-05-10T12:36:59;112.78;;;51.58;;
21170;SDS011;10743;52.160;20.910;2023-05-10T12:39:37;135.75;;;57.13;;
21170;SDS011;10743;52.160;20.910;2023-05-10T12:42:12;145.68;;;57.25;;
21170;SDS011;10743;52.160;20.910;2023-05-10T12:44:39;146.00;;;56.00;;
21170;SDS011;10743;52.160;20.910;2023-05-10T12:47:06;128.05;;;53.80;;
21170;SDS011;10743;52.160;20.910;2023-05-10T12:49:34;109.60;;;51.13;;
21170;SDS011;10743;52.160;20.910;2023-05-10T12:52:01;117.35;;;52.35;;
21170;SDS011;10743;52.160;20.910;2023-05-10T12:54:28;116.15;;;52.13;;
21170;SDS011;10743;52.160;20.910;2023-05-10T12:56:55;111.57;;;51.70;;
21170;SDS011;10743;52.160;20.910;2023-05-10T12:59:22;104.50;;;50.38;;
21170;SDS011;10743;52.160;20.910;2023-05-10T13:01:49;100.82;;;49.58;;
21170;SDS011;10743;52.160;20.910;2023-05-10T13:04:16;107.47;;;49.92;;
21170;SDS011;10743;52.160;20.910;2023-05-10T13:06:43;106.20;;;49.78;;
21170;SDS011;10743;52.160;20.910;2023-05-10T13:09:10;90.60;;;47.05;;
21170;SDS011;10743;52.160;20.910;2023-05-10T13:11:37;118.03;;;52.58;;
21170;SDS011;10743;52.160;20.910;2023-05-10T13:14:04;98.65;;;49.17;;
21170;SDS011;10743;52.160;20.910;2023-05-10T13:16:31;100.88;;;48.75;;
21170;SDS011;10743;52.160;20.910;2023-05-10T13:18:58;105.40;;;48.15;;
21170;SDS011;10743;52.160;20.910;2023-05-10T13:21:25;80.07;;;43.78;;
21170;SDS011;10743;52.160;20.910;2023-05-10T13:23:52;105.32;;;49.85;;
21170;SDS011;10743;52.160;20.910;2023-05-10T13:26:19;97.00;;;47.10;;
21170;SDS011;10743;52.160;20.910;2023-05-10T13:28:47;119.40;;;58.72;;
21170;SDS011;10743;52.160;20.910;2023-05-10T13:31:15;90.20;;;44.10;;
21170;SDS011;10743;52.160;20.910;2023-05-10T13:33:42;109.38;;;60.72;;
21170;SDS011;10743;52.160;20.910;2023-05-10T13:36:09;135.43;;;87.82;;
21170;SDS011;10743;52.160;20.910;2023-05-10T13:38:36;102.15;;;49.08;;
21170;SDS011;10743;52.160;20.910;2023-05-10T13:41:03;117.68;;;51.30;;
21170;SDS011;10743;52.160;20.910;2023-05-10T13:43:30;87.55;;;44.83;;
21170;SDS011;10743;52.160;20.910;2023-05-10T13:45:58;87.70;;;44.25;;
21170;SDS011;10743;52.160;20.910;2023-05-10T13:48:25;97.78;;;47.28;;
21170;SDS011;10743;52.160;20.910;2023-05-10T13:50:53;83.93;;;42.72;;
21170;SDS011;10743;52.160;20.910;2023-05-10T13:53:20;82.50;;;44.17;;
21170;SDS011;10743;52.160;20.910;2023-05-10T13:55:47;92.47;;;47.13;;
21170;SDS011;10743;52.160;20.910;2023-05-10T13:58:15;97.65;;;47.83;;
21170;SDS011;10743;52.160;20.910;2023-05-10T14:00:42;95.13;;;47.67;;
21170;SDS011;10743;52.160;20.910;2023-05-10T14:03:10;95.28;;;45.30;;
21170;SDS011;10743;52.160;20.910;2023-05-10T14:05:37;79.78;;;43.92;;
21170;SDS011;10743;52.160;20.910;2023-05-10T14:08:05;78.22;;;43.03;;
21170;SDS011;10743;52.160;20.910;2023-05-10T14:10:32;67.03;;;40.30;;
21170;SDS011;10743;52.160;20.910;2023-05-10T14:12:59;75.32;;;39.42;;
21170;SDS011;10743;52.160;20.910;2023-05-10T14:15:26;95.30;;;45.65;;
21170;SDS011;10743;52.160;20.910;2023-05-10T14:17:53;93.07;;;46.22;;
21170;SDS011;10743;52.160;20.910;2023-05-10T14:20:20;84.15;;;44.05;;
21170;SDS011;10743;52.160;20.910;2023-05-10T14:22:47;95.28;;;47.75;;
21170;SDS011;10743;52.160;20.910;2023-05-10T14:25:14;92.32;;;45.75;;
21170;SDS011;10743;52.160;20.910;2023-05-10T14:27:42;81.70;;;43.33;;
21170;SDS011;10743;52.160;20.910;2023-05-10T14:30:09;119.03;;;51.67;;
21170;SDS011;10743;52.160;20.910;2023-05-10T14:32:37;105.22;;;47.85;;
21170;SDS011;10743;52.160;20.910;2023-05-10T14:35:04;97.72;;;47.60;;
21170;SDS011;10743;52.160;20.910;2023-05-10T14:37:32;100.55;;;48.60;;
21170;SDS011;10743;52.160;20.910;2023-05-10T14:39:59;104.78;;;49.22;;